Terminal Aerodrome Forecast
Issued by NWS

Home | Current Version | Previous Version | Text Only | Print | Product List | Glossary On
Versions: 1 2 3 4 5 6 7 8 9 10 11 12 13 14 15 16
000
FTUS45 KPIH 220520
TAFSUN
TAF
KSUN 220520Z 2206/2306 33008KT P6SM BKN050 OVC120
     FM221800 12008KT P6SM -SHRA VCTS BKN050CB OVC080
      AMD LTD TO CLD VIS AND WIND TIL 221300=

USA.gov is the U.S. government's official web portal to all federal, state and local government web resources and services.